createdAt,value
2024-03-24T00:00:10.542Z,95.60
2024-03-24T00:05:38.263Z,95.33
2024-03-24T00:10:41.201Z,94.93
2024-03-24T00:15:44.338Z,95.00
2024-03-24T00:20:47.261Z,94.77
2024-03-24T00:25:50.345Z,94.70
2024-03-24T00:30:53.399Z,94.68
2024-03-24T00:35:58.207Z,94.86
2024-03-24T00:41:01.270Z,94.57
2024-03-24T00:46:05.005Z,94.55
2024-03-24T00:51:08.103Z,94.73
2024-03-24T00:56:10.957Z,94.44
2024-03-24T01:01:14.032Z,94.46
2024-03-24T01:06:16.957Z,95.06
2024-03-24T01:11:20.026Z,94.96
2024-03-24T01:16:23.162Z,94.75
2024-03-24T01:21:26.136Z,94.76
2024-03-24T01:26:29.087Z,94.61
2024-03-24T01:31:32.131Z,94.86
2024-03-24T01:36:35.189Z,94.64
2024-03-24T01:41:38.084Z,94.97
2024-03-24T01:46:41.249Z,94.86
2024-03-24T01:51:44.242Z,94.70
2024-03-24T01:56:47.210Z,94.51
2024-03-24T02:01:51.131Z,94.78
2024-03-24T02:06:54.202Z,94.72
2024-03-24T02:11:57.414Z,95.09
2024-03-24T02:17:01.682Z,95.43
2024-03-24T02:22:04.814Z,95.24
2024-03-24T02:27:07.765Z,95.44
2024-03-24T02:32:10.755Z,95.76
2024-03-24T02:37:13.732Z,96.34
2024-03-24T02:42:16.758Z,96.14
2024-03-24T02:47:19.732Z,95.77
2024-03-24T02:52:22.750Z,95.61
2024-03-24T02:57:27.021Z,95.82
2024-03-24T03:02:29.970Z,96.11
2024-03-24T03:07:33.177Z,96.15
2024-03-24T03:12:37.250Z,96.56
2024-03-24T03:17:40.451Z,96.85
2024-03-24T03:22:43.641Z,96.90
2024-03-24T03:27:46.522Z,97.21
2024-03-24T03:32:49.508Z,97.40
2024-03-24T03:37:52.614Z,97.28
2024-03-24T03:42:55.664Z,97.10
2024-03-24T03:47:58.659Z,97.18
2024-03-24T03:53:02.896Z,97.00
2024-03-24T03:58:05.883Z,97.27
2024-03-24T04:03:08.871Z,97.00
2024-03-24T04:08:12.745Z,97.18
2024-03-24T04:13:15.794Z,97.10
2024-03-24T04:18:18.839Z,97.35
2024-03-24T04:23:21.867Z,97.20
2024-03-24T04:28:24.906Z,97.47
2024-03-24T04:33:27.945Z,97.45
2024-03-24T04:38:31.392Z,97.78
2024-03-24T04:43:34.821Z,97.98
2024-03-24T04:48:38.128Z,98.04
2024-03-24T04:53:41.536Z,98.16
2024-03-24T04:58:44.613Z,98.13
2024-03-24T05:03:47.715Z,98.60
2024-03-24T05:08:51.881Z,99.47
2024-03-24T05:13:54.860Z,99.41
2024-03-24T05:18:57.883Z,99.37
2024-03-24T05:24:00.984Z,99.73
2024-03-24T05:29:05.948Z,99.64
2024-03-24T05:34:10.561Z,99.51
2024-03-24T05:39:13.686Z,99.23
2024-03-24T05:44:17.605Z,99.37
2024-03-24T05:49:20.722Z,99.40
2024-03-24T05:54:23.669Z,99.53
2024-03-24T05:59:26.763Z,99.84
2024-03-24T06:04:31.917Z,99.61
2024-03-24T06:09:39.737Z,99.57
2024-03-24T06:14:42.671Z,99.42
2024-03-24T06:19:45.606Z,99.20
2024-03-24T06:24:48.723Z,99.32
2024-03-24T06:29:51.731Z,99.23
2024-03-24T06:34:54.719Z,99.02
2024-03-24T06:39:57.681Z,99.02
2024-03-24T06:45:08.793Z,98.53
2024-03-24T06:50:11.860Z,98.27
2024-03-24T06:55:15.146Z,98.57
2024-03-24T07:00:21.585Z,98.43
2024-03-24T07:05:24.764Z,97.87
2024-03-24T07:10:27.685Z,98.18
2024-03-24T07:15:31.097Z,98.05
2024-03-24T07:20:34.751Z,98.11
2024-03-24T07:25:37.812Z,97.40
2024-03-24T07:30:40.855Z,97.23
2024-03-24T07:35:44.407Z,97.28
2024-03-24T07:40:47.618Z,97.57
2024-03-24T07:45:50.718Z,96.97
2024-03-24T07:50:53.769Z,97.40
2024-03-24T07:55:58.982Z,97.54
2024-03-24T08:01:02.148Z,97.69
2024-03-24T08:06:05.589Z,97.20
2024-03-24T08:11:08.502Z,97.11
2024-03-24T08:16:11.472Z,97.01
2024-03-24T08:21:17.041Z,97.10
2024-03-24T08:26:19.937Z,96.56
2024-03-24T08:31:25.583Z,96.07
2024-03-24T08:36:28.677Z,96.35
2024-03-24T08:41:31.646Z,96.59
2024-03-24T08:46:34.645Z,96.07
2024-03-24T08:51:37.984Z,95.27
2024-03-24T08:56:40.986Z,94.95
2024-03-24T09:01:45.512Z,94.23
2024-03-24T09:06:48.549Z,94.21
2024-03-24T09:11:52.789Z,93.29
2024-03-24T09:16:55.799Z,93.09
2024-03-24T09:21:58.891Z,93.05
2024-03-24T09:27:03.945Z,92.17
2024-03-24T09:32:06.934Z,91.29
2024-03-24T09:37:10.147Z,90.93
2024-03-24T09:42:16.589Z,89.80
2024-03-24T09:47:19.767Z,89.58
2024-03-24T09:52:24.164Z,89.04
2024-03-24T09:57:34.491Z,88.91
2024-03-24T10:02:37.488Z,87.97
2024-03-24T10:07:40.917Z,87.11
2024-03-24T10:12:54.987Z,86.12
2024-03-24T10:18:23.308Z,85.96
2024-03-24T10:23:30.783Z,85.24
2024-03-24T10:28:34.263Z,84.49
2024-03-24T10:33:40.561Z,83.63
2024-03-24T10:38:44.640Z,82.97
2024-03-24T10:43:48.884Z,81.52
2024-03-24T10:48:52.995Z,80.05
2024-03-24T10:54:01.460Z,78.89
2024-03-24T10:59:05.455Z,78.21
2024-03-24T11:04:09.564Z,77.72
2024-03-24T11:09:13.587Z,78.24
2024-03-24T11:14:16.792Z,78.02
2024-03-24T11:19:27.836Z,77.81
2024-03-24T11:24:35.885Z,77.38
2024-03-24T11:29:51.960Z,77.29
2024-03-24T11:35:00.692Z,77.02
2024-03-24T11:40:04.726Z,75.70
2024-03-24T11:45:28.146Z,75.07
2024-03-24T11:50:31.375Z,73.52
2024-03-24T11:55:35.160Z,73.60
2024-03-24T12:00:38.728Z,73.45
2024-03-24T12:05:41.631Z,72.63
2024-03-24T12:10:48.417Z,71.96
2024-03-24T12:15:51.530Z,71.66
2024-03-24T12:20:54.878Z,71.19
2024-03-24T12:25:57.815Z,71.00
2024-03-24T12:31:01.433Z,71.15
2024-03-24T12:36:05.750Z,70.86
2024-03-24T12:41:08.963Z,70.24
2024-03-24T12:46:11.954Z,69.78
2024-03-24T12:51:15.696Z,69.05
2024-03-24T12:56:21.240Z,68.38
2024-03-24T13:01:25.921Z,67.98
2024-03-24T13:06:32.024Z,67.65
2024-03-24T13:11:35.323Z,66.68
2024-03-24T13:16:44.080Z,66.83
2024-03-24T13:21:54.138Z,66.55
2024-03-24T13:27:00.584Z,66.44
2024-03-24T13:32:03.825Z,66.13
2024-03-24T13:37:17.751Z,65.13
2024-03-24T13:42:24.417Z,62.69
2024-03-24T13:47:38.457Z,62.92
2024-03-24T13:52:42.968Z,64.31
2024-03-24T13:57:46.023Z,64.18
2024-03-24T14:02:49.198Z,64.91
2024-03-24T14:07:52.296Z,65.63
2024-03-24T14:13:17.491Z,65.86
2024-03-24T14:18:33.088Z,66.87
2024-03-24T14:24:05.941Z,66.85
2024-03-24T14:29:08.867Z,66.43
2024-03-24T14:34:11.938Z,65.77
2024-03-24T14:39:35.058Z,66.23
2024-03-24T14:45:13.840Z,65.70
2024-03-24T14:50:17.091Z,65.55
2024-03-24T14:55:20.369Z,65.47
2024-03-24T15:00:24.651Z,64.83
2024-03-24T15:05:28.629Z,64.89
2024-03-24T15:10:31.787Z,65.23
2024-03-24T15:15:37.437Z,65.18
2024-03-24T15:20:40.465Z,65.23
2024-03-24T15:25:43.440Z,65.99
2024-03-24T15:30:47.796Z,67.03
2024-03-24T15:35:50.892Z,67.31
2024-03-24T15:40:53.852Z,67.84
2024-03-24T15:45:57.031Z,67.18
2024-03-24T15:51:00.487Z,67.60
2024-03-24T15:56:29.338Z,68.38
2024-03-24T16:01:43.889Z,68.70
2024-03-24T16:06:47.321Z,69.61
2024-03-24T16:11:56.408Z,71.39
2024-03-24T16:16:59.639Z,73.22
2024-03-24T16:22:25.645Z,73.94
2024-03-24T16:27:28.870Z,74.66
2024-03-24T16:32:31.967Z,76.10
2024-03-24T16:37:35.186Z,77.15
2024-03-24T16:42:38.762Z,77.46
2024-03-24T16:47:41.774Z,77.57
2024-03-24T16:52:45.069Z,78.25
2024-03-24T16:57:48.210Z,78.60
2024-03-24T17:02:51.838Z,78.87
2024-03-24T17:07:57.874Z,78.91
2024-03-24T17:13:00.996Z,79.48
2024-03-24T17:18:04.435Z,79.99
2024-03-24T17:23:07.687Z,80.34
2024-03-24T17:28:10.825Z,81.02
2024-03-24T17:33:14.903Z,81.71
2024-03-24T17:38:20.183Z,81.48
2024-03-24T17:43:23.553Z,82.43
2024-03-24T17:48:26.738Z,83.08
2024-03-24T17:53:35.657Z,83.30
2024-03-24T17:58:41.746Z,83.63
2024-03-24T18:03:48.478Z,83.93
2024-03-24T18:09:09.834Z,83.95
2024-03-24T18:14:13.118Z,84.26
2024-03-24T18:19:16.547Z,84.57
2024-03-24T18:24:19.620Z,84.99
2024-03-24T18:29:23.007Z,85.43
2024-03-24T18:34:26.252Z,85.43
2024-03-24T18:39:29.417Z,85.96
2024-03-24T18:44:32.517Z,85.61
2024-03-24T18:49:35.924Z,85.24
2024-03-24T18:54:39.322Z,85.62
2024-03-24T18:59:44.664Z,85.39
2024-03-24T19:04:48.056Z,85.48
2024-03-24T19:10:34.531Z,86.17
2024-03-24T19:15:46.447Z,86.07
2024-03-24T19:20:49.715Z,86.32
2024-03-24T19:25:56.881Z,86.46
2024-03-24T19:31:05.471Z,86.56
2024-03-24T19:36:11.704Z,86.72
2024-03-24T19:41:16.013Z,87.05
2024-03-24T19:46:19.681Z,87.13
2024-03-24T19:51:22.815Z,87.13
2024-03-24T19:56:27.613Z,87.53
2024-03-24T20:01:52.330Z,87.98
2024-03-24T20:06:55.501Z,88.11
2024-03-24T20:11:59.618Z,88.45
2024-03-24T20:17:02.698Z,88.57
2024-03-24T20:22:05.856Z,89.06
2024-03-24T20:27:08.982Z,89.13
2024-03-24T20:32:20.832Z,89.21
2024-03-24T20:37:23.834Z,89.48
2024-03-24T20:42:26.980Z,89.18
2024-03-24T20:47:30.103Z,89.45
2024-03-24T20:52:33.114Z,89.60
2024-03-24T20:57:36.346Z,89.45
2024-03-24T21:02:39.708Z,89.34
2024-03-24T21:07:42.733Z,89.09
2024-03-24T21:12:45.871Z,88.94
2024-03-24T21:18:29.600Z,88.67
2024-03-24T21:23:32.617Z,88.58
2024-03-24T21:28:35.723Z,88.74
2024-03-24T21:33:38.929Z,88.46
2024-03-24T21:39:00.484Z,88.34
2024-03-24T21:44:03.768Z,88.21
2024-03-24T21:49:06.833Z,88.63
2024-03-24T21:54:09.969Z,88.91
2024-03-24T21:59:13.320Z,89.12
2024-03-24T22:04:17.730Z,89.66
2024-03-24T22:09:21.401Z,89.78
2024-03-24T22:14:24.501Z,90.61
2024-03-24T22:19:27.593Z,90.36
2024-03-24T22:24:31.365Z,90.36
2024-03-24T22:29:34.519Z,90.58
2024-03-24T22:34:37.665Z,91.02
2024-03-24T22:39:40.921Z,91.42
2024-03-24T22:44:44.009Z,91.21
2024-03-24T22:49:47.027Z,91.36
2024-03-24T22:54:50.071Z,91.51
2024-03-24T22:59:53.105Z,91.32
2024-03-24T23:04:56.049Z,91.23
2024-03-24T23:09:59.447Z,91.00
2024-03-24T23:15:02.635Z,90.60
2024-03-24T23:20:07.192Z,90.19
2024-03-24T23:25:30.439Z,89.77
2024-03-24T23:30:33.643Z,89.82
2024-03-24T23:35:36.846Z,89.45
2024-03-24T23:40:39.874Z,89.50
2024-03-24T23:45:42.934Z,88.83
2024-03-24T23:50:46.108Z,88.65
2024-03-24T23:55:49.279Z,88.98
